Time;durP1;ratioP1;P1;durP2;ratioP2;P2;SDS_P1;SDS_P2;PMS_P1;PMS_P2;Temp;Humidity;BMP_temperature;BMP_pressure;BME280_temperature;BME280_humidity;BME280_pressure;Samples;Min_cycle;Max_cycle;Signal;HPM_P1;HPM_P2
2022/05/25 00:00:12;;;;;;;;;;;;;;;12.84;60.39;99305.66;4920352;29;1964;-95
2022/05/25 00:02:39;;;;;;;;;;;;;;;12.83;60.45;99312.16;4917584;29;1581;-96
2022/05/25 00:05:05;;;;;;;;;;;;;;;12.83;60.56;99312.16;4920725;29;1917;-95
2022/05/25 00:07:32;;;;;;;;;;;;;;;12.83;60.34;99317.53;4919547;29;1570;-95
2022/05/25 00:09:58;;;;;;;;;;;;;;;12.83;60.58;99320.25;4919323;29;1652;-95
2022/05/25 00:12:25;;;;;;;;;;;;;;;12.82;60.47;99315.09;4920866;29;1174;-96
2022/05/25 00:14:51;;;;;;;;;;;;;;;12.82;60.45;99315.09;4920947;29;1147;-96
2022/05/25 00:17:18;;;;;;;;;;;;;;;12.83;60.44;99324.84;4920130;29;1640;-95
2022/05/25 00:20:02;;;;;;;;;;;;;;;12.81;60.49;99325.09;4919880;29;1911;-95
2022/05/25 00:22:29;;;;;;;;;;;;;;;12.81;60.43;99327.78;4920228;29;1681;-95
2022/05/25 00:24:55;;;;;;;;;;;;;;;12.80;60.45;99328.88;4923272;29;1558;-95
2022/05/25 00:27:21;;;;;;;;;;;;;;;12.81;60.55;99327.00;4923120;29;1418;-95
2022/05/25 00:29:48;;;;;;;;;;;;;;;12.80;60.52;99325.38;4920931;29;2066;-95
2022/05/25 00:32:14;;;;;;;;;;;;;;;12.80;60.38;99331.59;4923618;29;1775;-95
2022/05/25 00:34:42;;;;;;;;;;;;;;;12.80;60.54;99330.78;4924540;29;1297;-95
2022/05/25 00:37:08;;;;;;;;;;;;;;;12.79;60.35;99331.84;4922860;29;1613;-96
2022/05/25 00:39:35;;;;;;;;;;;;;;;12.79;60.40;99323.72;4924263;29;1980;-95
2022/05/25 00:42:02;;;;;;;;;;;;;;;12.79;60.45;99331.84;4924327;29;1401;-95
2022/05/25 00:44:28;;;;;;;;;;;;;;;12.79;60.42;99321.03;4924351;29;1308;-95
2022/05/25 00:46:54;;;;;;;;;;;;;;;12.78;60.35;99328.31;4922743;29;1610;-96
2022/05/25 00:49:21;;;;;;;;;;;;;;;12.77;60.42;99326.72;4921319;29;1921;-95
2022/05/25 00:51:47;;;;;;;;;;;;;;;12.77;60.54;99326.72;4927252;29;1558;-95
2022/05/25 00:54:13;;;;;;;;;;;;;;;12.77;60.39;99324.00;4924203;29;1333;-96
2022/05/25 00:56:40;;;;;;;;;;;;;;;12.77;60.34;99328.59;4923150;29;1612;-95
2022/05/25 00:59:06;;;;;;;;;;;;;;;12.77;60.41;99324.00;4922264;29;1976;-95
2022/05/25 01:01:33;;;;;;;;;;;;;;;12.77;60.44;99323.19;4923006;29;1466;-96
2022/05/25 01:03:59;;;;;;;;;;;;;;;12.76;60.52;99322.38;4923982;29;1208;-96
2022/05/25 01:06:25;;;;;;;;;;;;;;;12.77;60.49;99325.91;4922496;29;1737;-95
2022/05/25 01:08:52;;;;;;;;;;;;;;;12.76;60.37;99325.06;4923189;29;1594;-95
2022/05/25 01:11:18;;;;;;;;;;;;;;;12.76;60.33;99329.66;4924020;29;1205;-95
2022/05/25 01:13:44;;;;;;;;;;;;;;;12.77;60.47;99328.59;4924077;29;1186;-95
2022/05/25 01:16:12;;;;;;;;;;;;;;;12.75;60.49;99334.25;4922985;29;1624;-95
2022/05/25 01:18:38;;;;;;;;;;;;;;;12.76;60.36;99325.06;4922300;29;1902;-95
2022/05/25 01:21:05;;;;;;;;;;;;;;;12.75;60.34;99328.84;4923371;29;1595;-95
2022/05/25 01:23:32;;;;;;;;;;;;;;;12.75;60.30;99330.75;4922703;29;1655;-95
2022/05/25 01:25:58;;;;;;;;;;;;;;;12.75;60.45;99325.34;4923784;29;1214;-95
2022/05/25 01:28:24;;;;;;;;;;;;;;;12.75;60.53;99333.44;4943602;29;1661;-96
2022/05/25 01:30:51;;;;;;;;;;;;;;;12.75;60.46;99333.44;4922508;29;1570;-95
2022/05/25 01:33:17;;;;;;;;;;;;;;;12.74;60.26;99332.66;4923644;29;1251;-95
2022/05/25 01:35:43;;;;;;;;;;;;;;;12.73;60.51;99334.53;4922849;29;1337;-96
2022/05/25 01:38:10;;;;;;;;;;;;;;;12.73;60.32;99333.69;4922585;29;1519;-95
2022/05/25 01:40:36;;;;;;;;;;;;;;;12.73;60.45;99339.09;4923171;29;1903;-95
2022/05/25 01:43:03;;;;;;;;;;;;;;;12.72;60.42;99330.19;4923189;29;1270;-95
2022/05/25 01:45:29;;;;;;;;;;;;;;;12.72;60.33;99335.59;4922006;29;1570;-95
2022/05/25 01:47:56;;;;;;;;;;;;;;;12.72;60.38;99351.00;4919977;29;1674;-95
2022/05/25 01:50:22;;;;;;;;;;;;;;;12.72;60.47;99341.00;4910003;29;1692;-96
2022/05/25 01:52:49;;;;;;;;;;;;;;;12.72;60.49;99342.88;4922126;29;1657;-95
2022/05/25 01:55:15;;;;;;;;;;;;;;;12.71;60.47;99336.69;4923445;29;1350;-95
2022/05/25 01:57:41;;;;;;;;;;;;;;;12.71;60.31;99328.56;4950900;29;1904;-95
2022/05/25 02:00:08;;;;;;;;;;;;;;;12.70;60.39;99339.63;4922138;29;1976;-95
2022/05/25 02:05:18;;;;;;;;;;;;;;;12.69;60.40;99346.94;4921965;29;1546;-95
2022/05/25 02:07:44;;;;;;;;;;;;;;;12.69;60.18;99346.94;4921444;29;1577;-95
2022/05/25 02:10:11;;;;;;;;;;;;;;;12.69;60.37;99348.81;4937146;29;1566;-95
2022/05/25 02:12:37;;;;;;;;;;;;;;;12.68;60.37;99349.91;4921787;29;1416;-95
2022/05/25 02:15:03;;;;;;;;;;;;;;;12.68;60.35;99349.91;4919496;29;2278;-95
2022/05/25 02:17:30;;;;;;;;;;;;;;;12.68;60.43;99360.72;4922535;29;1225;-95
2022/05/25 02:19:56;;;;;;;;;;;;;;;12.68;60.30;99366.13;4918820;29;1911;-95
2022/05/25 02:22:22;;;;;;;;;;;;;;;12.67;60.45;99365.28;4922521;29;1222;-96
2022/05/25 02:24:49;;;;;;;;;;;;;;;12.68;60.24;99366.13;4926133;29;1742;-95
2022/05/25 02:27:15;;;;;;;;;;;;;;;12.66;60.42;99360.16;4951456;29;1648;-96
2022/05/25 02:29:42;;;;;;;;;;;;;;;12.65;60.27;99359.34;4919172;29;1892;-96
2022/05/25 02:32:09;;;;;;;;;;;;;;;12.66;60.24;99362.84;4921550;29;1622;-95
2022/05/25 02:34:35;;;;;;;;;;;;;;;12.65;60.29;99361.25;4922302;29;1166;-95
2022/05/25 02:37:02;;;;;;;;;;;;;;;12.65;60.30;99361.25;4922662;29;1319;-95
2022/05/25 02:39:28;;;;;;;;;;;;;;;12.65;60.36;99364.75;4921040;29;1950;-96
2022/05/25 02:41:55;;;;;;;;;;;;;;;12.64;60.40;99365.00;4921604;29;1544;-95
2022/05/25 02:44:21;;;;;;;;;;;;;;;12.64;60.29;99363.09;4922226;29;1378;-95
2022/05/25 02:46:48;;;;;;;;;;;;;;;12.63;60.38;99364.19;4919943;29;1602;-96
2022/05/25 02:49:14;;;;;;;;;;;;;;;12.63;60.45;99358.78;4922349;29;1603;-95
2022/05/25 02:51:40;;;;;;;;;;;;;;;12.61;60.37;99355.53;4922472;29;1175;-95
2022/05/25 02:54:07;;;;;;;;;;;;;;;12.61;60.33;99358.22;4921286;29;1621;-95
2022/05/25 02:56:33;;;;;;;;;;;;;;;12.62;60.22;99357.16;4921080;29;1592;-95
2022/05/25 02:58:59;;;;;;;;;;;;;;;12.60;60.44;99348.50;4920566;29;1906;-95
2022/05/25 03:01:26;;;;;;;;;;;;;;;12.61;60.23;99355.53;4920937;29;1531;-95
2022/05/25 03:03:52;;;;;;;;;;;;;;;12.60;60.30;99351.19;4922061;29;1323;-95
2022/05/25 03:06:19;;;;;;;;;;;;;;;12.60;60.22;99355.81;4954067;29;1229;-95
2022/05/25 03:08:45;;;;;;;;;;;;;;;12.60;60.35;99353.91;4946453;29;1571;-96
2022/05/25 03:11:12;;;;;;;;;;;;;;;12.59;60.20;99352.28;4921622;29;1167;-95
2022/05/25 03:13:38;;;;;;;;;;;;;;;12.58;60.37;99353.34;4919346;29;1726;-95
2022/05/25 03:16:05;;;;;;;;;;;;;;;12.58;60.45;99355.25;4920698;29;1875;-95
2022/05/25 03:18:31;;;;;;;;;;;;;;;12.58;60.44;99356.03;4921463;29;1728;-95
2022/05/25 03:20:57;;;;;;;;;;;;;;;12.59;60.37;99357.69;4921477;29;1988;-96
2022/05/25 03:23:24;;;;;;;;;;;;;;;12.57;60.25;99359.03;4920621;29;1431;-95
2022/05/25 03:25:50;;;;;;;;;;;;;;;12.57;60.22;99372.53;4922258;29;1362;-95
2022/05/25 03:28:17;;;;;;;;;;;;;;;12.56;60.31;99366.31;4920271;29;1569;-96
2022/05/25 03:30:43;;;;;;;;;;;;;;;12.56;60.27;99369.03;4920704;29;1602;-96
2022/05/25 03:33:09;;;;;;;;;;;;;;;12.56;60.47;99368.19;4921248;29;1250;-95
2022/05/25 03:35:36;;;;;;;;;;;;;;;12.55;60.34;99369.25;4920688;29;1539;-95
2022/05/25 03:38:02;;;;;;;;;;;;;;;12.55;60.42;99369.25;4920564;29;1593;-95
2022/05/25 03:40:29;;;;;;;;;;;;;;;12.55;60.42;99367.38;4921287;29;1891;-95
2022/05/25 03:42:55;;;;;;;;;;;;;;;12.54;60.37;99365.75;4941530;29;2121;-95
2022/05/25 03:45:21;;;;;;;;;;;;;;;12.53;60.18;99372.25;4949690;29;1569;-95
2022/05/25 03:47:48;;;;;;;;;;;;;;;12.53;60.26;99372.25;4919168;29;1607;-96
2022/05/25 03:50:14;;;;;;;;;;;;;;;12.54;60.36;99376.56;4919303;29;1842;-95
2022/05/25 03:52:40;;;;;;;;;;;;;;;12.53;60.27;99366.00;4920543;29;1703;-96
2022/05/25 03:55:07;;;;;;;;;;;;;;;12.54;60.35;99373.06;4921127;29;1191;-95
2022/05/25 03:57:33;;;;;;;;;;;;;;;12.52;60.37;99370.59;4919083;29;1679;-96
2022/05/25 03:59:59;;;;;;;;;;;;;;;12.52;60.43;99369.78;4919477;29;1976;-95
2022/05/25 04:02:26;;;;;;;;;;;;;;;12.52;60.23;99369.78;4933758;29;1691;-96
2022/05/25 04:05:07;;;;;;;;;;;;;;;12.51;60.20;99368.97;4920519;29;1534;-95
2022/05/25 04:07:33;;;;;;;;;;;;;;;12.50;60.39;99365.47;4918234;29;1628;-95
2022/05/25 04:10:00;;;;;;;;;;;;;;;12.49;60.38;99366.53;4926584;29;1763;-96
2022/05/25 04:12:26;;;;;;;;;;;;;;;12.49;60.42;99361.13;4920891;29;1333;-95
2022/05/25 04:14:52;;;;;;;;;;;;;;;12.49;60.31;99369.22;4920540;29;1466;-95
2022/05/25 04:17:19;;;;;;;;;;;;;;;12.49;60.42;99369.22;4920239;29;1578;-95
2022/05/25 04:19:46;;;;;;;;;;;;;;;12.49;60.19;99371.13;4920712;29;1910;-95
2022/05/25 04:22:12;;;;;;;;;;;;;;;12.49;60.33;99371.13;4919456;29;1523;-95
2022/05/25 04:24:38;;;;;;;;;;;;;;;12.48;60.37;99370.31;4921067;29;1333;-96
2022/05/25 04:27:05;;;;;;;;;;;;;;;12.48;60.21;99374.91;4917310;29;1785;-95
2022/05/25 04:29:31;;;;;;;;;;;;;;;12.48;60.30;99377.59;4920726;29;1462;-96
2022/05/25 04:31:58;;;;;;;;;;;;;;;12.46;60.24;99375.16;4919644;29;1617;-95
2022/05/25 04:34:24;;;;;;;;;;;;;;;12.48;60.36;99374.91;4920936;29;1214;-95
2022/05/25 04:36:51;;;;;;;;;;;;;;;12.45;60.23;99378.94;4918588;29;1569;-95
2022/05/25 04:39:17;;;;;;;;;;;;;;;12.46;60.32;99377.84;4908986;29;1322;-95
2022/05/25 04:41:43;;;;;;;;;;;;;;;12.45;60.24;99375.44;4920534;29;1984;-95
2022/05/25 04:44:10;;;;;;;;;;;;;;;12.45;60.18;99378.13;4920220;29;1387;-95
2022/05/25 04:46:36;;;;;;;;;;;;;;;12.44;60.42;99369.22;4918221;29;1538;-95
2022/05/25 04:49:02;;;;;;;;;;;;;;;12.44;60.36;99374.63;4920688;29;1356;-95
2022/05/25 04:51:29;;;;;;;;;;;;;;;12.44;60.36;99371.06;4920545;29;1235;-95
2022/05/25 04:53:55;;;;;;;;;;;;;;;12.44;60.34;99376.47;4919811;29;1602;-96
2022/05/25 04:59:05;;;;;;;;;;;;;;;12.43;60.28;99381.06;4909331;29;1300;-95
2022/05/25 05:01:32;;;;;;;;;;;;;;;12.44;60.25;99377.31;4919480;29;1978;-94
2022/05/25 05:03:58;;;;;;;;;;;;;;;12.43;60.18;99378.38;4919667;29;1580;-96
2022/05/25 05:06:25;;;;;;;;;;;;;;;12.43;60.38;99380.25;4920638;29;1262;-95
2022/05/25 05:08:51;;;;;;;;;;;;;;;12.43;60.17;99377.56;4917562;29;1573;-95
2022/05/25 05:11:18;;;;;;;;;;;;;;;12.42;60.31;99371.34;4922530;29;1206;-95
2022/05/25 05:13:44;;;;;;;;;;;;;;;12.42;60.16;99376.75;4923881;29;1179;-95
2022/05/25 05:16:10;;;;;;;;;;;;;;;12.41;60.22;99383.25;4922858;29;1561;-95
2022/05/25 05:18:37;;;;;;;;;;;;;;;12.42;60.08;99387.56;4911080;29;1841;-96
2022/05/25 05:21:03;;;;;;;;;;;;;;;12.41;60.35;99382.41;4924245;29;1903;-96
2022/05/25 05:23:31;;;;;;;;;;;;;;;12.40;60.45;99386.19;4925153;29;1594;-96
2022/05/25 05:25:58;;;;;;;;;;;;;;;12.40;60.60;99389.69;4924305;29;1296;-95
2022/05/25 05:28:24;;;;;;;;;;;;;;;12.40;60.41;99378.91;4921715;29;1614;-96
2022/05/25 05:30:50;;;;;;;;;;;;;;;12.41;60.11;99385.94;4930596;29;1293;-96
2022/05/25 05:33:17;;;;;;;;;;;;;;;12.41;60.22;99385.94;4923219;29;1497;-96
2022/05/25 05:35:43;;;;;;;;;;;;;;;12.42;60.37;99384.06;4923731;29;1401;-96
2022/05/25 05:38:10;;;;;;;;;;;;;;;12.40;60.36;99384.28;4923564;29;1321;-96
2022/05/25 05:40:36;;;;;;;;;;;;;;;12.41;60.22;99385.94;4923653;29;1977;-96
2022/05/25 05:43:03;;;;;;;;;;;;;;;12.42;60.19;99392.16;4923355;29;1135;-96
2022/05/25 05:45:29;;;;;;;;;;;;;;;12.40;60.13;99388.88;4919961;29;1908;-96
2022/05/25 05:47:56;;;;;;;;;;;;;;;12.41;60.10;99387.81;4923094;29;1270;-96
2022/05/25 05:50:22;;;;;;;;;;;;;;;12.41;60.44;99390.50;4923402;29;1294;-96
2022/05/25 05:52:48;;;;;;;;;;;;;;;12.39;60.19;99387.28;4950106;29;1197;-96
2022/05/25 05:55:15;;;;;;;;;;;;;;;12.39;60.24;99395.38;4922774;29;1277;-96
2022/05/25 05:57:41;;;;;;;;;;;;;;;12.39;60.29;99387.28;4923492;29;1280;-96
2022/05/25 06:00:07;;;;;;;;;;;;;;;12.40;60.14;99397.78;4920737;29;1910;-96
2022/05/25 06:02:34;;;;;;;;;;;;;;;12.39;60.23;99388.09;4922834;29;1290;-96
2022/05/25 06:05:00;;;;;;;;;;;;;;;12.39;60.18;99396.19;4922675;29;1646;-96
2022/05/25 06:07:27;;;;;;;;;;;;;;;12.38;60.03;99386.47;4921941;29;1531;-96
2022/05/25 06:09:53;;;;;;;;;;;;;;;12.40;60.20;99388.88;4921530;29;1436;-96
2022/05/25 06:12:19;;;;;;;;;;;;;;;12.39;60.26;99392.66;4938208;29;1906;-96
2022/05/25 06:14:46;;;;;;;;;;;;;;;12.39;60.05;99388.09;4921940;29;1636;-96
2022/05/25 06:19:56;;;;;;;;;;;;;;;12.40;59.99;99397.78;4921532;29;2713;-96
2022/05/25 06:22:23;;;;;;;;;;;;;;;12.40;60.15;99388.88;4922965;29;1655;-96
2022/05/25 06:24:49;;;;;;;;;;;;;;;12.40;60.06;99391.59;4925623;29;1416;-96
2022/05/25 06:27:16;;;;;;;;;;;;;;;12.39;60.08;99392.66;4923460;29;1482;-96
2022/05/25 06:29:43;;;;;;;;;;;;;;;12.39;60.23;99392.66;4926346;29;1321;-96
2022/05/25 06:32:09;;;;;;;;;;;;;;;12.39;60.04;99388.09;4923227;29;1594;-96
2022/05/25 06:34:35;;;;;;;;;;;;;;;12.40;60.22;99402.38;4923644;29;1487;-96
2022/05/25 06:37:02;;;;;;;;;;;;;;;12.39;59.98;99401.56;4921927;29;1507;-96
2022/05/25 06:39:29;;;;;;;;;;;;;;;12.39;60.22;99400.78;4922668;29;1259;-96
2022/05/25 06:41:55;;;;;;;;;;;;;;;12.39;60.19;99398.06;4922057;29;1980;-96
2022/05/25 06:44:22;;;;;;;;;;;;;;;12.38;60.21;99396.44;4943498;29;1781;-96
2022/05/25 06:46:48;;;;;;;;;;;;;;;12.39;60.04;99387.28;4920835;29;1645;-96
2022/05/25 06:49:14;;;;;;;;;;;;;;;12.38;60.26;99382.94;4922682;29;1202;-95
2022/05/25 06:51:41;;;;;;;;;;;;;;;12.37;60.13;99394.81;4925534;29;1674;-96
2022/05/25 06:54:08;;;;;;;;;;;;;;;12.38;60.09;99396.44;4922066;29;1177;-96
2022/05/25 06:56:35;;;;;;;;;;;;;;;12.38;60.26;99399.13;4921346;29;1452;-95
2022/05/25 06:59:01;;;;;;;;;;;;;;;12.38;60.16;99402.66;4916860;29;1463;-96
2022/05/25 07:01:27;;;;;;;;;;;;;;;12.38;60.21;99399.13;4928484;29;1911;-95
2022/05/25 07:03:54;;;;;;;;;;;;;;;12.39;60.18;99411.56;4922422;29;1226;-96
2022/05/25 07:06:20;;;;;;;;;;;;;;;12.38;60.16;99408.06;4920658;29;1613;-96
2022/05/25 07:08:47;;;;;;;;;;;;;;;12.39;60.28;99401.56;4921908;29;1718;-95
2022/05/25 07:11:13;;;;;;;;;;;;;;;12.38;60.14;99404.53;4921761;29;1221;-96
2022/05/25 07:13:39;;;;;;;;;;;;;;;12.38;60.14;99413.47;4921588;29;1478;-96
2022/05/25 07:16:06;;;;;;;;;;;;;;;12.39;60.16;99414.28;4921619;29;1199;-95
2022/05/25 07:18:32;;;;;;;;;;;;;;;12.38;60.00;99412.63;4920939;29;1632;-96
2022/05/25 07:20:58;;;;;;;;;;;;;;;12.37;60.12;99414.50;4921533;29;1915;-96
2022/05/25 07:23:25;;;;;;;;;;;;;;;12.38;60.10;99412.63;4921764;29;1159;-95
2022/05/25 07:25:51;;;;;;;;;;;;;;;12.38;60.20;99408.06;4920821;29;1686;-95
2022/05/25 07:28:17;;;;;;;;;;;;;;;12.38;60.22;99412.63;4921403;29;1234;-96
2022/05/25 07:30:44;;;;;;;;;;;;;;;12.38;60.10;99424.25;4921378;29;1170;-95
2022/05/25 07:33:10;;;;;;;;;;;;;;;12.39;60.09;99425.88;4920855;29;1273;-95
2022/05/25 07:35:37;;;;;;;;;;;;;;;12.39;60.00;99431.28;4921130;29;1259;-96
2022/05/25 07:38:03;;;;;;;;;;;;;;;12.39;60.21;99425.06;4921339;29;1187;-94
2022/05/25 07:40:31;;;;;;;;;;;;;;;12.40;59.88;99437.50;4918643;29;1918;-95
2022/05/25 07:42:58;;;;;;;;;;;;;;;12.40;60.12;99421.28;4921563;29;1294;-95
2022/05/25 07:45:25;;;;;;;;;;;;;;;12.39;60.17;99427.78;4921288;29;1309;-94
2022/05/25 07:47:53;;;;;;;;;;;;;;;12.39;60.13;99419.66;4921073;29;1380;-94
2022/05/25 07:50:19;;;;;;;;;;;;;;;12.39;60.18;99420.47;4921192;29;1321;-94
2022/05/25 07:52:46;;;;;;;;;;;;;;;12.39;60.22;99425.88;4920995;29;1286;-95
2022/05/25 07:55:12;;;;;;;;;;;;;;;12.40;60.18;99432.09;4920419;29;1552;-94
2022/05/25 07:57:39;;;;;;;;;;;;;;;12.38;60.07;99423.44;4920146;29;1624;-95
2022/05/25 08:00:05;;;;;;;;;;;;;;;12.38;59.99;99420.72;4921168;29;1289;-94
2022/05/25 08:07:59;;;;;;;;;;;;;;;12.39;60.23;99422.38;4921393;29;1325;-94
2022/05/25 08:10:26;;;;;;;;;;;;;;;12.38;60.08;99420.72;4921240;29;1172;-95
2022/05/25 08:12:52;;;;;;;;;;;;;;;12.38;60.01;99424.25;4917590;29;1174;-94
2022/05/25 08:15:19;;;;;;;;;;;;;;;12.39;60.10;99422.38;4908140;29;1298;-94
2022/05/25 08:17:45;;;;;;;;;;;;;;;12.39;60.19;99427.78;4920961;29;1326;-94
2022/05/25 08:20:11;;;;;;;;;;;;;;;12.39;60.08;99422.38;4949587;29;1158;-94
2022/05/25 08:22:38;;;;;;;;;;;;;;;12.39;60.09;99420.47;4920663;29;1903;-94
2022/05/25 08:25:04;;;;;;;;;;;;;;;12.39;60.10;99427.78;4944256;29;1587;-94
2022/05/25 08:27:31;;;;;;;;;;;;;;;12.39;60.28;99433.19;4907861;29;1207;-93
2022/05/25 08:29:57;;;;;;;;;;;;;;;12.39;60.25;99428.59;4920341;29;1613;-94
2022/05/25 08:32:24;;;;;;;;;;;;;;;12.39;60.30;99427.78;4920897;29;1288;-95
2022/05/25 08:34:50;;;;;;;;;;;;;;;12.39;60.32;99425.88;4949709;29;1281;-94
2022/05/25 08:37:17;;;;;;;;;;;;;;;12.40;60.23;99432.09;4920804;29;1302;-94
2022/05/25 08:39:43;;;;;;;;;;;;;;;12.38;60.26;99440.47;4918352;29;1647;-93
2022/05/25 08:42:09;;;;;;;;;;;;;;;12.38;60.27;99440.47;4920402;29;1903;-94
2022/05/25 08:44:36;;;;;;;;;;;;;;;12.39;60.50;99442.09;4921654;29;1524;-94
2022/05/25 08:47:02;;;;;;;;;;;;;;;12.40;60.17;99446.41;4924013;29;1249;-94
2022/05/25 08:49:28;;;;;;;;;;;;;;;12.40;60.34;99441.00;4924358;29;1211;-94
2022/05/25 08:51:55;;;;;;;;;;;;;;;12.39;60.31;99436.69;4924191;29;1318;-94
2022/05/25 08:54:22;;;;;;;;;;;;;;;12.41;60.44;99431.00;4924287;29;1218;-93
2022/05/25 08:56:49;;;;;;;;;;;;;;;12.41;60.40;99437.25;4923124;29;1680;-93
2022/05/25 08:59:15;;;;;;;;;;;;;;;12.41;60.09;99448.03;4941355;29;1190;-94
2022/05/25 09:01:42;;;;;;;;;;;;;;;12.43;60.20;99442.38;4923953;29;1978;-94
2022/05/25 09:04:08;;;;;;;;;;;;;;;12.43;60.27;99447.78;4923898;29;1295;-93
2022/05/25 09:06:35;;;;;;;;;;;;;;;12.42;60.31;99444.25;4924053;29;1282;-93
2022/05/25 09:09:01;;;;;;;;;;;;;;;12.42;60.38;99448.84;4921519;29;1692;-93
2022/05/25 09:11:27;;;;;;;;;;;;;;;12.43;60.40;99451.28;4919550;29;1673;-94
2022/05/25 09:13:54;;;;;;;;;;;;;;;12.44;60.23;99447.53;4921889;29;1746;-94
2022/05/25 09:16:20;;;;;;;;;;;;;;;12.44;60.39;99441.28;4924096;29;1214;-94
2022/05/25 09:18:47;;;;;;;;;;;;;;;12.44;60.38;99446.69;4924148;29;1227;-94
2022/05/25 09:21:13;;;;;;;;;;;;;;;12.44;60.34;99444.00;4952359;29;1911;-94
2022/05/25 09:23:39;;;;;;;;;;;;;;;12.46;60.51;99458.06;4923534;29;1182;-93
2022/05/25 09:26:06;;;;;;;;;;;;;;;12.45;60.53;99451.84;4923605;29;1195;-93
2022/05/25 09:28:32;;;;;;;;;;;;;;;12.45;60.51;99451.03;4923533;29;1249;-94
2022/05/25 09:31:00;;;;;;;;;;;;;;;12.46;60.61;99447.25;4952327;29;1425;-94
2022/05/25 09:33:27;;;;;;;;;;;;;;;12.48;60.41;99458.63;4913048;29;1595;-94
2022/05/25 09:35:53;;;;;;;;;;;;;;;12.47;60.44;99449.72;4924011;29;1226;-94
2022/05/25 09:38:19;;;;;;;;;;;;;;;12.48;60.65;99461.31;4923431;29;1155;-93
2022/05/25 09:40:46;;;;;;;;;;;;;;;12.50;60.59;99460.00;4922719;29;1978;-94
2022/05/25 09:43:12;;;;;;;;;;;;;;;12.50;60.72;99445.69;4916612;29;1697;-94
2022/05/25 09:45:39;;;;;;;;;;;;;;;12.50;60.76;99451.09;4923121;29;1348;-94
2022/05/25 09:48:05;;;;;;;;;;;;;;;12.50;60.85;99443.78;4923182;29;1329;-94
2022/05/25 09:50:32;;;;;;;;;;;;;;;12.50;60.85;99446.50;4923266;29;1230;-94
2022/05/25 09:52:58;;;;;;;;;;;;;;;12.50;60.77;99451.09;4923213;29;1222;-93
2022/05/25 09:55:24;;;;;;;;;;;;;;;12.53;60.95;99452.44;4923242;29;1274;-94
2022/05/25 09:57:51;;;;;;;;;;;;;;;12.53;60.85;99449.72;4922617;29;1187;-94
2022/05/25 10:00:17;;;;;;;;;;;;;;;12.53;60.94;99453.25;4923152;29;1195;-94
2022/05/25 10:02:43;;;;;;;;;;;;;;;12.54;61.03;99459.47;4919089;29;1985;-94
2022/05/25 10:05:10;;;;;;;;;;;;;;;12.54;61.10;99454.88;4923407;29;1249;-93
2022/05/25 10:07:37;;;;;;;;;;;;;;;12.55;61.02;99453.00;4923311;29;1442;-94
2022/05/25 10:10:03;;;;;;;;;;;;;;;12.56;61.07;99451.91;4921918;29;1511;-93
2022/05/25 10:12:29;;;;;;;;;;;;;;;12.56;61.32;99458.16;4917942;29;1584;-94
2022/05/25 10:14:56;;;;;;;;;;;;;;;12.56;61.26;99449.19;4922929;29;1178;-94
2022/05/25 10:17:22;;;;;;;;;;;;;;;12.57;61.38;99450.84;4922665;29;1296;-93
2022/05/25 10:19:48;;;;;;;;;;;;;;;12.58;61.41;99458.69;4922657;29;1227;-94
2022/05/25 10:22:15;;;;;;;;;;;;;;;12.58;61.35;99447.06;4920250;29;1915;-94
2022/05/25 10:24:41;;;;;;;;;;;;;;;12.59;61.40;99460.31;4937294;29;1254;-93
2022/05/25 10:27:08;;;;;;;;;;;;;;;12.60;61.52;99461.13;4922768;29;1162;-93
2022/05/25 10:37:46;;;;;;;;;;;;;;;12.62;61.82;99457.09;4922387;29;1345;-94
2022/05/25 10:40:13;;;;;;;;;;;;;;;12.63;61.65;99457.91;4922236;29;1299;-94
2022/05/25 10:42:44;;;;;;;;;;;;;;;12.61;61.74;99441.94;4921975;29;1915;-94
2022/05/25 10:45:10;;;;;;;;;;;;;;;12.62;61.93;99446.31;4922141;29;1352;-94
2022/05/25 10:47:36;;;;;;;;;;;;;;;12.65;62.03;99450.38;4921185;29;1631;-94
2022/05/25 10:50:03;;;;;;;;;;;;;;;12.65;62.08;99455.78;4922267;29;1233;-94
2022/05/25 10:52:29;;;;;;;;;;;;;;;12.66;61.97;99458.19;4922205;29;1131;-94
2022/05/25 10:54:56;;;;;;;;;;;;;;;12.66;62.08;99457.41;4952811;29;1282;-94
2022/05/25 10:57:23;;;;;;;;;;;;;;;12.65;62.12;99456.59;4922182;29;1298;-94
2022/05/25 10:59:50;;;;;;;;;;;;;;;12.66;62.01;99460.09;4921941;29;1193;-94
2022/05/25 11:02:16;;;;;;;;;;;;;;;12.67;62.22;99456.31;4921714;29;1918;-93
2022/05/25 11:04:43;;;;;;;;;;;;;;;12.67;62.26;99467.13;4952500;29;1287;-93
2022/05/25 11:07:09;;;;;;;;;;;;;;;12.67;62.36;99473.31;4920816;29;1440;-94
2022/05/25 11:09:35;;;;;;;;;;;;;;;12.69;62.40;99473.91;4921188;29;1138;-94
2022/05/25 11:12:02;;;;;;;;;;;;;;;12.70;62.23;99474.69;4908063;29;1861;-94
2022/05/25 11:14:30;;;;;;;;;;;;;;;12.71;62.40;99473.66;4921586;29;1293;-94
2022/05/25 11:16:57;;;;;;;;;;;;;;;12.73;62.36;99471.47;4922044;29;1324;-94
2022/05/25 11:19:23;;;;;;;;;;;;;;;12.72;62.68;99473.38;4921976;29;1210;-94
2022/05/25 11:21:50;;;;;;;;;;;;;;;12.72;62.48;99464.47;4921601;29;1919;-94
2022/05/25 11:24:16;;;;;;;;;;;;;;;12.73;62.59;99460.66;4922199;29;1218;-94
2022/05/25 11:26:43;;;;;;;;;;;;;;;12.74;62.84;99459.63;4917458;29;1247;-93
2022/05/25 11:29:09;;;;;;;;;;;;;;;12.74;62.61;99454.22;4920924;29;1163;-94
2022/05/25 11:31:36;;;;;;;;;;;;;;;12.75;62.73;99457.72;4933735;29;1651;-94
2022/05/25 11:34:02;;;;;;;;;;;;;;;12.75;62.71;99463.94;4921615;29;1198;-94
2022/05/25 11:36:29;;;;;;;;;;;;;;;12.75;62.96;99461.22;4921798;29;1190;-94
2022/05/25 11:38:56;;;;;;;;;;;;;;;12.77;62.67;99463.69;4920009;29;1700;-94
2022/05/25 11:41:22;;;;;;;;;;;;;;;12.77;62.92;99459.09;4906800;29;1990;-94
2022/05/25 11:43:48;;;;;;;;;;;;;;;12.76;62.87;99457.44;4921317;29;1309;-93
2022/05/25 11:46:15;;;;;;;;;;;;;;;12.79;62.92;99469.63;4952472;29;1315;-94
2022/05/25 11:48:41;;;;;;;;;;;;;;;12.79;63.15;99466.94;4914095;29;1190;-96
2022/05/25 11:51:08;;;;;;;;;;;;;;;12.80;63.00;99468.56;4901785;29;1182;-94
2022/05/25 11:53:34;;;;;;;;;;;;;;;12.79;63.08;99465.03;4902180;29;1287;-93
2022/05/25 11:56:01;;;;;;;;;;;;;;;12.81;63.23;99476.41;4902194;29;1204;-94
2022/05/25 11:58:27;;;;;;;;;;;;;;;12.83;63.21;99481.56;4901755;29;1552;-95
2022/05/25 12:00:54;;;;;;;;;;;;;;;12.84;63.15;99488.56;4900955;29;1749;-94
2022/05/25 12:03:21;;;;;;;;;;;;;;;12.83;63.17;99493.19;4900339;29;1977;-94
2022/05/25 12:05:47;;;;;;;;;;;;;;;12.80;63.34;99499.09;4902424;29;1194;-95
2022/05/25 12:08:13;;;;;;;;;;;;;;;12.80;63.41;99493.69;4902006;29;1290;-94
2022/05/25 12:10:40;;;;;;;;;;;;;;;12.80;63.34;99506.41;4888502;29;1758;-96
2022/05/25 12:13:07;;;;;;;;;;;;;;;12.80;63.25;99522.59;4901882;29;1403;-96
2022/05/25 12:15:33;;;;;;;;;;;;;;;12.80;63.10;99534.22;4902382;29;1285;-95
2022/05/25 12:17:59;;;;;;;;;;;;;;;12.80;63.24;99525.31;4902044;29;1325;-96
2022/05/25 12:20:27;;;;;;;;;;;;;;;12.81;63.15;99521.53;4904903;29;1257;-95
2022/05/25 12:22:53;;;;;;;;;;;;;;;12.83;63.05;99511.28;4905770;29;1967;-96
2022/05/25 12:25:20;;;;;;;;;;;;;;;12.85;62.86;99514.53;4905059;29;1617;-96
2022/05/25 12:27:46;;;;;;;;;;;;;;;12.85;63.11;99509.13;4905795;29;1213;-96
2022/05/25 12:30:13;;;;;;;;;;;;;;;12.85;63.19;99506.41;4905485;29;1562;-96
2022/05/25 12:32:39;;;;;;;;;;;;;;;12.85;62.73;99504.56;4914921;29;2070;-96
2022/05/25 12:35:06;;;;;;;;;;;;;;;12.85;63.03;99503.72;4905861;29;1272;-95
2022/05/25 12:37:33;;;;;;;;;;;;;;;12.88;62.72;99511.28;4905289;29;1314;-94
2022/05/25 12:39:59;;;;;;;;;;;;;;;12.87;62.86;99501.56;4905849;29;1355;-96
2022/05/25 12:42:26;;;;;;;;;;;;;;;12.87;62.99;99502.38;4903911;29;1919;-96
2022/05/25 12:50:20;;;;;;;;;;;;;;;12.88;62.83;99497.78;4954940;29;1231;-96
2022/05/25 12:52:46;;;;;;;;;;;;;;;12.87;63.29;99491.56;4924042;29;1198;-95
2022/05/25 12:55:13;;;;;;;;;;;;;;;12.85;63.15;99491.03;4923677;29;1647;-95
2022/05/25 12:57:40;;;;;;;;;;;;;;;12.87;63.18;99482.66;4924296;29;1309;-95
2022/05/25 13:00:06;;;;;;;;;;;;;;;12.88;63.31;99489.69;4924172;29;1294;-94
2022/05/25 13:02:33;;;;;;;;;;;;;;;12.87;63.18;99491.56;4923484;29;1914;-95
2022/05/25 13:04:59;;;;;;;;;;;;;;;12.88;62.91;99495.91;4924011;29;1301;-95
2022/05/25 13:07:26;;;;;;;;;;;;;;;12.90;62.93;99485.66;4950342;29;1405;-94
2022/05/25 13:09:52;;;;;;;;;;;;;;;12.91;62.95;99490.00;4910011;29;1435;-94
2022/05/25 13:12:18;;;;;;;;;;;;;;;12.92;62.91;99498.91;4923857;29;1241;-94
2022/05/25 13:14:45;;;;;;;;;;;;;;;12.93;63.18;99493.22;4924009;29;1416;-95
2022/05/25 13:17:13;;;;;;;;;;;;;;;12.94;62.98;99496.75;4923818;29;1226;-95
2022/05/25 13:19:39;;;;;;;;;;;;;;;12.95;63.25;99495.69;4924255;29;1293;-95